createdAt,value
2023-02-23T00:03:56.546Z,41.17
2023-02-23T00:07:58.273Z,41.83
2023-02-23T00:11:59.885Z,41.55
2023-02-23T00:16:14.329Z,41.90
2023-02-23T00:20:16.518Z,41.20
2023-02-23T00:24:21.698Z,41.30
2023-02-23T00:28:23.391Z,41.58
2023-02-23T00:32:25.349Z,45.25
2023-02-23T00:36:29.871Z,42.55
2023-02-23T00:40:31.500Z,39.85
2023-02-23T00:44:33.954Z,39.83
2023-02-23T00:48:35.659Z,39.53
2023-02-23T00:52:37.323Z,41.00
2023-02-23T00:56:39.794Z,40.05
2023-02-23T01:00:42.136Z,42.47
2023-02-23T01:04:43.787Z,41.60
2023-02-23T01:08:50.829Z,42.25
2023-02-23T01:12:52.789Z,42.88
2023-02-23T01:16:54.864Z,44.35
2023-02-23T01:20:56.479Z,43.47
2023-02-23T01:24:58.165Z,41.90
2023-02-23T01:29:12.173Z,41.13
2023-02-23T01:33:13.962Z,43.05
2023-02-23T01:37:15.601Z,42.33
2023-02-23T01:41:17.839Z,43.35
2023-02-23T01:45:28.046Z,40.42
2023-02-23T01:49:31.912Z,42.25
2023-02-23T01:53:39.831Z,43.70
2023-02-23T01:57:42.213Z,43.47
2023-02-23T02:01:44.849Z,40.35
2023-02-23T02:05:50.397Z,42.60
2023-02-23T02:10:13.921Z,40.97
2023-02-23T02:14:28.326Z,39.80
2023-02-23T02:18:49.332Z,40.12
2023-02-23T02:23:27.203Z,38.90
2023-02-23T02:27:50.423Z,41.78
2023-02-23T02:31:58.680Z,40.05
2023-02-23T02:36:06.129Z,45.30
2023-02-23T02:40:28.057Z,44.17
2023-02-23T02:44:38.381Z,46.03
2023-02-23T02:49:03.697Z,45.28
2023-02-23T02:53:08.887Z,45.50
2023-02-23T02:57:12.627Z,45.28
2023-02-23T03:01:35.270Z,43.78
2023-02-23T03:06:04.092Z,43.80
2023-02-23T03:10:49.228Z,43.72
2023-02-23T03:15:25.913Z,46.40
2023-02-23T03:19:52.868Z,44.17
2023-02-23T03:24:25.888Z,47.77
2023-02-23T03:29:01.598Z,46.63
2023-02-23T03:33:37.888Z,45.97
2023-02-23T03:38:24.279Z,47.53
2023-02-23T03:42:51.108Z,47.83
2023-02-23T03:47:12.601Z,49.45
2023-02-23T03:51:34.559Z,49.08
2023-02-23T03:55:58.277Z,49.00
2023-02-23T04:00:23.841Z,49.25
2023-02-23T04:04:46.237Z,50.55
2023-02-23T04:09:09.278Z,50.45
2023-02-23T04:13:22.584Z,49.08
2023-02-23T04:17:28.492Z,50.17
2023-02-23T04:21:30.949Z,49.13
2023-02-23T04:25:32.624Z,50.63
2023-02-23T04:29:34.254Z,52.20
2023-02-23T04:33:35.911Z,49.33
2023-02-23T04:37:37.714Z,50.55
2023-02-23T04:41:39.323Z,51.25
2023-02-23T04:45:41.844Z,49.63
2023-02-23T04:49:43.951Z,51.40
2023-02-23T04:53:45.592Z,50.08
2023-02-23T04:57:47.671Z,48.53
2023-02-23T05:01:49.336Z,47.65
2023-02-23T05:05:50.959Z,46.28
2023-02-23T05:09:52.790Z,47.28
2023-02-23T05:13:54.542Z,46.63
2023-02-23T05:17:56.219Z,47.70
2023-02-23T05:21:57.916Z,47.10
2023-02-23T05:26:06.091Z,49.05
2023-02-23T05:30:09.811Z,48.22
2023-02-23T05:34:11.711Z,49.93
2023-02-23T05:38:13.444Z,49.72
2023-02-23T05:42:15.124Z,47.55
2023-02-23T05:46:21.249Z,49.80
2023-02-23T05:50:22.895Z,49.88
2023-02-23T05:54:24.517Z,50.92
2023-02-23T05:58:26.236Z,52.22
2023-02-23T06:02:27.928Z,49.25
2023-02-23T06:06:29.604Z,50.38
2023-02-23T06:10:31.261Z,50.65
2023-02-23T06:14:33.328Z,52.58
2023-02-23T06:18:35.360Z,51.08
2023-02-23T06:22:37.069Z,51.35
2023-02-23T06:26:38.901Z,50.63
2023-02-23T06:30:40.701Z,50.78
2023-02-23T06:34:42.318Z,53.15
2023-02-23T06:38:44.896Z,50.35
2023-02-23T06:42:47.147Z,51.97
2023-02-23T06:46:48.832Z,51.85
2023-02-23T06:50:50.481Z,52.85
2023-02-23T06:54:52.251Z,51.35
2023-02-23T06:58:53.953Z,51.88
2023-02-23T07:02:57.697Z,51.42
2023-02-23T07:06:59.608Z,49.78
2023-02-23T07:11:13.293Z,46.80
2023-02-23T07:15:17.597Z,48.97
2023-02-23T07:19:19.280Z,52.75
2023-02-23T07:23:22.166Z,51.95
2023-02-23T07:27:23.863Z,52.08
2023-02-23T07:31:26.183Z,52.60
2023-02-23T07:35:27.840Z,53.40
2023-02-23T07:39:29.937Z,52.40
2023-02-23T07:43:31.905Z,52.92
2023-02-23T07:47:34.624Z,51.75
2023-02-23T07:51:36.298Z,50.03
2023-02-23T07:55:38.651Z,49.92
2023-02-23T07:59:40.330Z,49.28
2023-02-23T08:03:49.185Z,48.83
2023-02-23T08:07:50.947Z,47.85
2023-02-23T08:11:52.580Z,48.78
2023-02-23T08:15:54.192Z,48.53
2023-02-23T08:19:55.805Z,47.83
2023-02-23T08:23:58.136Z,46.40
2023-02-23T08:28:04.776Z,46.13
2023-02-23T08:32:06.661Z,45.33
2023-02-23T08:36:08.927Z,44.83
2023-02-23T08:40:15.313Z,44.70
2023-02-23T08:44:17.008Z,41.27
2023-02-23T08:48:18.668Z,40.90
2023-02-23T08:52:21.051Z,42.70
2023-02-23T08:56:25.139Z,43.35
2023-02-23T09:00:26.921Z,43.87
2023-02-23T09:04:31.007Z,41.58
2023-02-23T09:08:32.698Z,41.13
2023-02-23T09:12:34.352Z,40.20
2023-02-23T09:16:36.649Z,37.83
2023-02-23T09:20:41.573Z,36.72
2023-02-23T09:24:43.271Z,37.17
2023-02-23T09:28:45.462Z,32.63
2023-02-23T09:32:48.088Z,33.38
2023-02-23T09:36:49.942Z,35.42
2023-02-23T09:40:54.349Z,35.88
2023-02-23T09:45:23.659Z,35.75
2023-02-23T09:49:29.634Z,35.08
2023-02-23T09:53:51.099Z,34.72
2023-02-23T09:57:53.741Z,37.58
2023-02-23T10:02:02.159Z,37.38
2023-02-23T10:06:09.273Z,37.58
2023-02-23T10:10:28.092Z,34.92
2023-02-23T10:14:57.668Z,35.20
2023-02-23T10:19:09.426Z,35.08
2023-02-23T10:23:21.628Z,35.42
2023-02-23T10:27:30.302Z,35.45
2023-02-23T10:31:45.518Z,33.55
2023-02-23T10:35:47.763Z,36.28
2023-02-23T10:39:51.353Z,35.40
2023-02-23T10:43:53.091Z,36.10
2023-02-23T10:48:03.908Z,34.15
2023-02-23T10:52:07.289Z,35.70
2023-02-23T10:56:14.699Z,36.67
2023-02-23T11:00:16.911Z,32.47
2023-02-23T11:04:27.611Z,31.15
2023-02-23T11:08:35.855Z,31.60
2023-02-23T11:12:41.702Z,31.17
2023-02-23T11:16:43.599Z,31.20
2023-02-23T11:20:45.383Z,30.80
2023-02-23T11:24:47.113Z,31.60
2023-02-23T11:28:54.309Z,30.58
2023-02-23T11:37:23.962Z,28.80
2023-02-23T11:41:25.599Z,29.60
2023-02-23T11:45:33.474Z,29.35
2023-02-23T11:49:36.877Z,28.73
2023-02-23T11:53:46.350Z,30.67
2023-02-23T11:57:50.210Z,27.77
2023-02-23T12:01:54.795Z,27.85
2023-02-23T12:05:59.156Z,27.23
2023-02-23T12:10:18.804Z,26.17
2023-02-23T12:14:39.997Z,25.25
2023-02-23T12:18:56.507Z,26.85
2023-02-23T12:23:03.587Z,25.45
2023-02-23T12:27:12.757Z,25.60
2023-02-23T12:31:31.019Z,25.33
2023-02-23T12:35:54.534Z,25.45
2023-02-23T12:40:16.024Z,25.20
2023-02-23T12:44:35.519Z,24.30
2023-02-23T12:48:48.541Z,23.65
2023-02-23T12:52:54.553Z,22.00
2023-02-23T12:57:21.137Z,20.90
2023-02-23T13:01:39.343Z,19.52
2023-02-23T13:06:02.825Z,20.52
2023-02-23T13:10:16.401Z,20.85
2023-02-23T13:14:27.027Z,19.95
2023-02-23T13:18:45.207Z,18.52
2023-02-23T13:23:11.592Z,18.87
2023-02-23T13:27:22.093Z,17.87
2023-02-23T13:31:33.599Z,17.75
2023-02-23T13:35:38.293Z,17.70
2023-02-23T13:39:46.022Z,17.50
2023-02-23T13:44:12.950Z,17.52
2023-02-23T13:48:32.387Z,16.97
2023-02-23T13:52:40.302Z,16.27
2023-02-23T13:56:49.604Z,15.52
2023-02-23T14:01:05.165Z,18.08
2023-02-23T14:05:28.943Z,16.30
2023-02-23T14:09:34.740Z,17.98
2023-02-23T14:13:59.541Z,16.08
2023-02-23T14:18:04.587Z,16.40
2023-02-23T14:22:12.352Z,15.52
2023-02-23T14:26:44.204Z,14.68
2023-02-23T14:30:58.956Z,13.45
2023-02-23T14:35:02.181Z,14.00
2023-02-23T14:39:10.289Z,14.40
2023-02-23T14:43:42.728Z,15.75
2023-02-23T14:47:47.738Z,15.13
2023-02-23T14:51:53.572Z,15.00
2023-02-23T14:55:57.904Z,15.98
2023-02-23T15:00:02.420Z,16.73
2023-02-23T15:04:17.262Z,17.23
2023-02-23T15:08:23.100Z,19.20
2023-02-23T15:12:30.085Z,20.05
2023-02-23T15:16:35.217Z,21.52
2023-02-23T15:20:36.931Z,20.33
2023-02-23T15:24:44.449Z,21.52
2023-02-23T15:28:47.079Z,20.02
2023-02-23T15:32:49.239Z,21.90
2023-02-23T15:36:57.121Z,21.17
2023-02-23T15:41:06.057Z,19.92
2023-02-23T15:45:28.381Z,21.12
2023-02-23T15:49:37.613Z,20.83
2023-02-23T15:53:41.160Z,19.00
2023-02-23T15:57:52.405Z,21.30
2023-02-23T16:01:55.125Z,20.52
2023-02-23T16:06:06.555Z,20.83
2023-02-23T16:10:27.704Z,19.77
2023-02-23T16:14:35.086Z,21.35
2023-02-23T16:18:40.844Z,19.73
2023-02-23T16:22:45.947Z,20.10
2023-02-23T16:26:51.956Z,20.10
2023-02-23T16:31:02.559Z,21.77
2023-02-23T16:35:15.636Z,19.33
2023-02-23T16:39:17.382Z,20.80
2023-02-23T16:43:19.211Z,20.10
2023-02-23T16:47:23.728Z,20.85
2023-02-23T16:51:27.732Z,19.95
2023-02-23T16:55:29.889Z,19.95
2023-02-23T16:59:32.442Z,19.77
2023-02-23T17:03:36.007Z,18.50
2023-02-23T17:07:39.950Z,17.25
2023-02-23T17:11:43.771Z,18.17
2023-02-23T17:15:51.749Z,17.87
2023-02-23T17:19:53.459Z,17.50
2023-02-23T17:24:02.466Z,16.12
2023-02-23T17:28:04.384Z,17.62
2023-02-23T17:32:06.468Z,16.70
2023-02-23T17:36:13.013Z,17.15
2023-02-23T17:40:36.136Z,17.33
2023-02-23T17:44:37.815Z,16.23
2023-02-23T17:48:40.566Z,16.05
2023-02-23T17:52:42.364Z,15.98
2023-02-23T17:56:44.582Z,16.12
2023-02-23T18:00:46.773Z,14.55
2023-02-23T18:04:49.816Z,15.60
2023-02-23T18:08:51.412Z,13.93
2023-02-23T18:12:53.768Z,15.57
2023-02-23T18:16:55.795Z,15.13
2023-02-23T18:20:59.557Z,15.00
2023-02-23T18:25:01.278Z,15.20
2023-02-23T18:29:04.687Z,14.00
2023-02-23T18:33:07.468Z,13.73
2023-02-23T18:37:09.879Z,15.23
2023-02-23T18:41:11.754Z,12.93
2023-02-23T18:45:14.495Z,13.55
2023-02-23T18:49:18.033Z,13.57
2023-02-23T18:53:19.635Z,13.70
2023-02-23T18:57:21.283Z,14.15
2023-02-23T19:01:28.798Z,14.70
2023-02-23T19:05:30.562Z,13.95
2023-02-23T19:09:32.434Z,13.90
2023-02-23T19:13:34.200Z,14.85
2023-02-23T19:17:36.548Z,13.40
2023-02-23T19:21:38.986Z,12.15
2023-02-23T19:25:40.858Z,14.23
2023-02-23T19:29:42.694Z,12.88
2023-02-23T19:33:44.447Z,14.75
2023-02-23T19:37:51.526Z,13.57
2023-02-23T19:41:53.195Z,15.68
2023-02-23T19:45:54.912Z,16.30
2023-02-23T19:49:56.694Z,13.82
2023-02-23T19:53:59.040Z,14.02
2023-02-23T19:58:00.714Z,13.50
2023-02-23T20:02:02.397Z,13.90
2023-02-23T20:06:06.603Z,13.00
2023-02-23T20:10:10.062Z,13.25
2023-02-23T20:14:12.333Z,13.15
2023-02-23T20:18:14.029Z,13.40
2023-02-23T20:22:15.853Z,13.35
2023-02-23T20:26:21.787Z,14.18
2023-02-23T20:30:23.948Z,13.98
2023-02-23T20:34:25.805Z,14.02
2023-02-23T20:38:27.474Z,13.80
2023-02-23T20:42:29.223Z,13.65
2023-02-23T20:46:31.512Z,14.13
2023-02-23T20:50:34.037Z,13.07
2023-02-23T20:54:36.514Z,14.82
2023-02-23T20:58:39.535Z,13.50
2023-02-23T21:02:41.436Z,13.57
2023-02-23T21:06:43.086Z,13.80
2023-02-23T21:10:45.467Z,14.27
2023-02-23T21:14:48.580Z,14.63
2023-02-23T21:18:54.855Z,13.98
2023-02-23T21:22:56.864Z,15.17
2023-02-23T21:26:58.505Z,14.30
2023-02-23T21:31:00.212Z,14.73
2023-02-23T21:35:02.014Z,14.00
2023-02-23T21:39:04.724Z,12.98
2023-02-23T21:43:08.979Z,9.00
2023-02-23T21:47:10.930Z,7.97
2023-02-23T21:51:15.501Z,7.20
2023-02-23T21:55:21.780Z,7.05
2023-02-23T21:59:23.872Z,6.60
2023-02-23T22:03:27.103Z,6.57
2023-02-23T22:07:29.471Z,6.03
2023-02-23T22:11:31.220Z,6.20
2023-02-23T22:15:33.731Z,5.22
2023-02-23T22:19:35.387Z,5.87
2023-02-23T22:23:38.236Z,5.87
2023-02-23T22:27:42.659Z,5.82
2023-02-23T22:31:44.623Z,4.95
2023-02-23T22:35:46.660Z,4.78
2023-02-23T22:39:48.762Z,5.72
2023-02-23T22:43:50.443Z,4.93
2023-02-23T22:47:52.098Z,4.95
2023-02-23T22:51:53.720Z,5.97
2023-02-23T22:55:56.220Z,5.03
2023-02-23T23:00:05.808Z,4.50
2023-02-23T23:04:10.359Z,4.72
2023-02-23T23:08:13.322Z,4.45
2023-02-23T23:12:17.932Z,4.70
2023-02-23T23:16:30.953Z,4.55
2023-02-23T23:20:33.777Z,5.40
2023-02-23T23:24:35.386Z,4.50
2023-02-23T23:28:40.248Z,4.57
2023-02-23T23:32:41.952Z,5.00
2023-02-23T23:36:49.062Z,4.00
2023-02-23T23:40:53.762Z,4.15
2023-02-23T23:44:56.860Z,4.20
2023-02-23T23:49:02.053Z,4.53
2023-02-23T23:53:04.433Z,5.78
2023-02-23T23:57:06.970Z,5.78
